Time;durP1;ratioP1;P1;durP2;ratioP2;P2;SDS_P1;SDS_P2;PMS_P1;PMS_P2;Temp;Humidity;BMP_temperature;BMP_pressure;BME280_temperature;BME280_humidity;BME280_pressure;Samples;Min_cycle;Max_cycle;Signal;HPM_P1;HPM_P2
2022/10/24 00:01:54;;;;;;;12.57;3.38;;;;;;;16.06;100.00;99723.88;8425219;28;20048;-48
2022/10/24 00:05:55;;;;;;;15.20;3.38;;;;;;;16.12;100.00;99713.06;8423347;28;20120;-48
2022/10/24 00:09:56;;;;;;;10.48;3.55;;;;;;;16.18;100.00;99711.41;8425588;28;20416;-48
2022/10/24 00:13:58;;;;;;;22.30;3.50;;;;;;;16.08;100.00;99716.38;8425716;28;20161;-51
2022/10/24 00:17:58;;;;;;;13.35;2.95;;;;;;;16.07;100.00;99718.25;8423347;28;20036;-48
2022/10/24 00:21:59;;;;;;;10.45;3.15;;;;;;;15.98;100.00;99722.13;8424968;28;20097;-49
2022/10/24 00:26:02;;;;;;;7.50;2.75;;;;;;;15.96;100.00;99712.47;8423923;28;20076;-48
2022/10/24 00:30:04;;;;;;;11.10;2.75;;;;;;;15.98;100.00;99704.94;8424184;28;20044;-49
2022/10/24 00:34:05;;;;;;;11.77;3.53;;;;;;;15.92;100.00;99725.63;8423845;28;20040;-48
2022/10/24 00:38:06;;;;;;;9.90;3.10;;;;;;;15.88;100.00;99720.75;8424341;28;20048;-48
2022/10/24 00:42:07;;;;;;;9.25;3.13;;;;;;;15.81;100.00;99714.41;8424355;28;20027;-49
2022/10/24 00:46:07;;;;;;;6.47;3.08;;;;;;;15.71;100.00;99712.84;8439262;28;20493;-50
2022/10/24 00:50:13;;;;;;;10.77;3.50;;;;;;;15.74;100.00;99717.91;8424168;28;20047;-48
2022/10/24 00:54:14;;;;;;;8.38;3.95;;;;;;;15.71;100.00;99718.28;8424462;28;20032;-49
2022/10/24 00:58:17;;;;;;;12.73;3.42;;;;;;;15.75;100.00;99699.69;8422928;28;20459;-49
2022/10/24 01:02:17;;;;;;;13.48;3.25;;;;;;;15.73;100.00;99716.22;8424183;28;20040;-47
2022/10/24 01:06:47;;;;;;;10.90;3.38;;;;;;;15.69;100.00;99692.28;8423254;28;20092;-47
2022/10/24 01:19:36;;;;;;;11.65;3.58;;;;;;;15.42;100.00;99688.41;8488038;27;20117;-49
2022/10/24 01:24:16;;;;;;;11.68;3.67;;;;;;;15.44;100.00;99680.88;8391953;28;20413;-47
2022/10/24 01:28:23;;;;;;;13.65;3.60;;;;;;;15.61;100.00;99660.53;8432930;27;20157;-47
2022/10/24 01:32:51;;;;;;;9.95;2.80;;;;;;;15.79;100.00;99672.91;8449832;27;20119;-47
2022/10/24 01:37:05;;;;;;;17.35;3.42;;;;;;;16.01;100.00;99664.50;8451712;27;20048;-47
2022/10/24 01:41:11;;;;;;;12.25;2.97;;;;;;;16.34;100.00;99643.78;8451321;28;20363;-48
2022/10/24 01:45:18;;;;;;;7.55;2.50;;;;;;;16.85;99.34;99649.81;8449474;27;20115;-48
2022/10/24 01:49:22;;;;;;;7.32;2.45;;;;;;;16.60;100.00;99651.34;8415681;28;20036;-48
2022/10/24 01:53:25;;;;;;;6.45;2.63;;;;;;;16.42;100.00;99637.34;8417557;28;20032;-48
2022/10/24 01:57:28;;;;;;;7.50;2.63;;;;;;;16.49;100.00;99638.25;8421771;27;20036;-47
2022/10/24 02:01:29;;;;;;;6.38;2.50;;;;;;;16.33;100.00;99635.81;8450579;27;20036;-48
2022/10/24 02:05:36;;;;;;;11.32;2.67;;;;;;;16.12;100.00;99652.22;8451501;27;20036;-48
2022/10/24 02:09:40;;;;;;;12.18;2.70;;;;;;;16.12;100.00;99646.75;8451570;27;20140;-50
2022/10/24 02:14:01;;;;;;;9.10;2.83;;;;;;;16.34;100.00;99651.13;8448488;28;20097;-50
2022/10/24 02:18:02;;;;;;;6.85;2.30;;;;;;;16.43;100.00;99652.66;8450793;27;20465;-50
2022/10/24 02:22:28;;;;;;;10.55;2.70;;;;;;;16.37;100.00;99639.81;8451304;27;20073;-52
2022/10/24 02:26:37;;;;;;;13.68;2.22;;;;;;;16.42;100.00;99640.91;8451039;27;20115;-51
2022/10/24 02:30:43;;;;;;;7.68;2.30;;;;;;;16.61;99.03;99633.94;8429699;27;20048;-49
2022/10/24 02:34:46;;;;;;;11.73;2.35;;;;;;;16.54;99.39;99638.50;8428542;28;20496;-49
2022/10/24 02:38:50;;;;;;;7.97;2.42;;;;;;;16.71;97.42;99624.34;8427925;28;20072;-51
2022/10/24 02:42:55;;;;;;;8.63;2.40;;;;;;;16.92;94.94;99617.94;8429442;28;20122;-47
2022/10/24 02:46:59;;;;;;;7.43;2.03;;;;;;;17.16;92.54;99626.44;8428195;28;20289;-47
2022/10/24 02:51:02;;;;;;;10.88;1.80;;;;;;;17.42;90.74;99628.44;8427984;28;20097;-48
2022/10/24 02:55:03;;;;;;;8.50;2.28;;;;;;;17.27;91.60;99622.28;8428235;28;20040;-48
2022/10/24 02:59:04;;;;;;;6.78;1.67;;;;;;;17.50;89.11;99617.31;8427151;28;20515;-49
2022/10/24 03:03:05;;;;;;;9.95;1.92;;;;;;;17.55;87.97;99623.03;8426888;28;20381;-50
2022/10/24 03:07:06;;;;;;;11.45;2.00;;;;;;;17.62;87.35;99618.41;8426947;28;20040;-48
2022/10/24 03:11:06;;;;;;;5.90;1.75;;;;;;;17.37;88.33;99615.38;8426419;28;20509;-49
2022/10/24 03:15:07;;;;;;;7.03;1.55;;;;;;;17.45;87.31;99615.22;8425726;28;20397;-49
2022/10/24 03:19:08;;;;;;;4.30;1.35;;;;;;;17.43;86.77;99614.59;8425550;28;20047;-47
2022/10/24 03:23:09;;;;;;;11.35;1.40;;;;;;;17.46;86.54;99618.78;8425040;28;20533;-47
2022/10/24 03:27:09;;;;;;;5.20;1.40;;;;;;;17.41;86.89;99624.00;8426657;28;20036;-47
2022/10/24 03:31:10;;;;;;;4.78;1.08;;;;;;;17.64;85.21;99619.06;8426837;28;20039;-50
2022/10/24 03:35:11;;;;;;;5.95;1.60;;;;;;;17.72;84.38;99612.53;8425497;28;20032;-48
2022/10/24 03:39:11;;;;;;;5.65;1.38;;;;;;;17.73;83.80;99611.47;8425082;28;20553;-48
2022/10/24 03:43:12;;;;;;;4.10;1.10;;;;;;;17.87;82.38;99614.00;8425650;28;20039;-48
2022/10/24 03:47:13;;;;;;;6.63;1.20;;;;;;;17.77;82.91;99616.31;8426420;28;20119;-47
2022/10/24 03:51:14;;;;;;;2.22;0.98;;;;;;;17.83;81.97;99610.03;8426152;28;20056;-48
2022/10/24 03:55:15;;;;;;;6.72;1.00;;;;;;;17.70;82.33;99629.16;8424884;28;20112;-48
2022/10/24 03:59:15;;;;;;;6.50;1.20;;;;;;;17.82;81.52;99616.56;8425885;28;20032;-48
2022/10/24 04:03:17;;;;;;;4.65;1.33;;;;;;;17.79;81.30;99613.38;8422410;28;20032;-48
2022/10/24 04:07:17;;;;;;;8.30;1.02;;;;;;;17.93;80.54;99621.38;8423926;28;20069;-48
2022/10/24 04:11:18;;;;;;;4.75;1.00;;;;;;;17.81;81.35;99614.84;8416052;28;20155;-48
2022/10/24 04:15:19;;;;;;;5.53;1.73;;;;;;;17.66;82.21;99610.63;8424331;28;20293;-48
2022/10/24 04:19:20;;;;;;;2.17;0.80;;;;;;;17.63;82.04;99612.72;8423101;28;20108;-48
2022/10/24 04:23:20;;;;;;;6.40;1.10;;;;;;;17.63;82.36;99618.19;8423665;28;20119;-47
2022/10/24 04:27:21;;;;;;;4.57;1.23;;;;;;;17.58;82.36;99617.13;8424647;28;20036;-48
2022/10/24 04:31:22;;;;;;;9.23;0.93;;;;;;;17.65;82.19;99620.72;8425227;28;20035;-49
2022/10/24 04:35:24;;;;;;;5.53;0.90;;;;;;;17.41;83.62;99618.53;8424544;28;20031;-50
2022/10/24 04:39:24;;;;;;;10.52;1.42;;;;;;;17.16;85.12;99628.31;8423773;28;20040;-49
2022/10/24 04:43:25;;;;;;;5.95;1.30;;;;;;;17.17;84.93;99614.47;8414952;28;20036;-48
2022/10/24 04:47:26;;;;;;;5.05;1.17;;;;;;;17.21;85.15;99628.56;8405975;28;20054;-49
2022/10/24 04:51:27;;;;;;;5.13;1.17;;;;;;;17.04;86.10;99628.06;8423714;28;20451;-49
2022/10/24 04:55:28;;;;;;;4.03;0.90;;;;;;;17.08;85.70;99617.59;8417440;28;20040;-48
2022/10/24 04:59:28;;;;;;;2.95;0.90;;;;;;;17.16;85.06;99614.66;8408392;28;20036;-49
2022/10/24 05:03:29;;;;;;;7.45;1.20;;;;;;;17.25;84.23;99627.09;8405407;28;20119;-50
2022/10/24 05:07:30;;;;;;;7.90;1.80;;;;;;;17.22;84.38;99630.25;8409885;28;20067;-49
2022/10/24 05:11:31;;;;;;;6.57;1.60;;;;;;;17.14;85.00;99633.16;8410837;28;20042;-51
2022/10/24 05:15:31;;;;;;;2.88;1.13;;;;;;;16.83;86.96;99646.44;8411324;28;20708;-49
2022/10/24 05:19:32;;;;;;;5.47;2.30;;;;;;;16.84;86.78;99651.69;8405102;28;20043;-49
2022/10/24 05:23:33;;;;;;;8.30;2.22;;;;;;;16.62;88.36;99649.28;8408897;28;20050;-49
2022/10/24 05:27:34;;;;;;;8.13;1.20;;;;;;;16.68;87.53;99643.84;8410779;28;20070;-49
2022/10/24 05:31:34;;;;;;;3.50;1.23;;;;;;;16.76;87.12;99659.22;8400248;28;20035;-49
2022/10/24 05:35:35;;;;;;;5.47;1.08;;;;;;;16.80;86.92;99657.78;8385215;28;20409;-48
2022/10/24 05:39:36;;;;;;;12.48;1.85;;;;;;;16.89;86.46;99656.56;8384842;28;20409;-50
2022/10/24 05:43:36;;;;;;;4.55;0.98;;;;;;;16.76;86.72;99656.50;8417381;28;20044;-49
2022/10/24 05:47:37;;;;;;;13.27;1.48;;;;;;;16.68;87.16;99653.94;8414505;28;20036;-49
2022/10/24 05:51:37;;;;;;;4.50;1.35;;;;;;;16.55;88.13;99656.56;8407128;28;20044;-48
2022/10/24 05:55:38;;;;;;;6.10;1.33;;;;;;;16.48;88.72;99650.22;8413467;28;20044;-49
2022/10/24 05:59:39;;;;;;;4.15;0.73;;;;;;;16.46;88.30;99671.41;8417866;28;20546;-49
2022/10/24 06:03:40;;;;;;;5.57;0.90;;;;;;;16.45;88.53;99667.00;8414335;28;20343;-48
2022/10/24 06:07:41;;;;;;;2.65;0.70;;;;;;;16.49;88.35;99671.00;8392891;28;20505;-50
2022/10/24 06:11:42;;;;;;;5.90;1.08;;;;;;;16.41;88.39;99673.84;8418189;28;20032;-50
2022/10/24 06:15:43;;;;;;;3.42;0.90;;;;;;;16.49;87.99;99682.75;8419249;28;20043;-49
2022/10/24 06:19:45;;;;;;;8.82;0.93;;;;;;;16.66;87.03;99675.13;8407789;28;20105;-49
2022/10/24 06:23:45;;;;;;;1.92;0.73;;;;;;;16.67;86.99;99674.91;8414012;28;20409;-49
2022/10/24 06:27:47;;;;;;;6.70;0.90;;;;;;;16.81;86.26;99684.84;8409528;28;20070;-48
2022/10/24 06:31:47;;;;;;;8.55;1.50;;;;;;;16.90;85.76;99696.47;8417018;28;20759;-49
2022/10/24 06:35:48;;;;;;;6.60;1.20;;;;;;;16.92;86.01;99699.84;8395776;28;20041;-49
2022/10/24 06:39:49;;;;;;;7.60;1.00;;;;;;;17.03;85.19;99696.56;8405813;28;20041;-49
2022/10/24 06:43:52;;;;;;;15.88;1.95;;;;;;;17.08;85.16;99694.06;8412026;28;20039;-48
2022/10/24 06:47:52;;;;;;;7.40;1.58;;;;;;;17.17;84.44;99699.16;8412542;28;20400;-52
2022/10/24 06:51:53;;;;;;;4.93;0.90;;;;;;;17.14;85.02;99704.19;8400925;28;20032;-49
2022/10/24 06:55:54;;;;;;;4.80;0.88;;;;;;;17.21;84.70;99705.91;8390352;28;20081;-48
2022/10/24 06:59:54;;;;;;;8.90;1.13;;;;;;;17.27;84.39;99706.97;8406923;28;20494;-49
2022/10/24 07:03:55;;;;;;;4.47;1.13;;;;;;;17.26;85.07;99724.44;8403318;28;20085;-48
2022/10/24 07:07:56;;;;;;;3.08;0.95;;;;;;;17.38;84.10;99717.31;8422742;28;20036;-48
2022/10/24 07:11:56;;;;;;;5.75;0.90;;;;;;;17.33;84.73;99719.81;8418098;28;20040;-50
2022/10/24 07:15:57;;;;;;;5.57;1.15;;;;;;;17.29;85.41;99734.91;8423353;28;20513;-48
2022/10/24 07:19:57;;;;;;;5.75;1.20;;;;;;;17.24;86.11;99742.91;8421931;28;20036;-49
2022/10/24 07:23:59;;;;;;;4.55;1.30;;;;;;;17.25;86.79;99766.44;8408849;28;20101;-49
2022/10/24 07:27:59;;;;;;;5.10;0.90;;;;;;;17.36;85.96;99763.97;8404835;28;20255;-48
2022/10/24 07:32:00;;;;;;;7.15;1.50;;;;;;;17.45;85.60;99768.25;8418054;28;20044;-49
2022/10/24 07:36:01;;;;;;;15.50;3.53;;;;;;;17.57;85.18;99774.00;8391949;28;20041;-48
2022/10/24 07:40:02;;;;;;;12.23;1.85;;;;;;;17.63;84.78;99779.47;8401827;28;20056;-52
2022/10/24 07:44:03;;;;;;;13.60;1.90;;;;;;;17.65;84.24;99779.28;8424396;28;20036;-53
2022/10/24 07:48:05;;;;;;;13.02;1.55;;;;;;;17.65;84.29;99784.75;8424345;28;20123;-49
2022/10/24 07:52:06;;;;;;;7.53;1.15;;;;;;;17.63;84.71;99793.16;8422807;28;20043;-50
2022/10/24 07:56:10;;;;;;;10.70;1.23;;;;;;;17.69;83.96;99786.03;8406167;28;20040;-49
2022/10/24 08:00:11;;;;;;;;;;;;;;;17.77;84.11;99794.06;8404777;28;20035;-50
2022/10/24 08:04:15;;;;;;;;;;;;;;;17.88;83.89;99788.00;8417704;28;19939;-49
2022/10/24 08:08:16;;;;;;;19.85;3.10;;;;;;;18.20;82.80;99795.44;8420620;28;19920;-50
2022/10/24 08:12:17;;;;;;;20.20;3.20;;;;;;;18.86;81.30;99793.66;8403961;28;20115;-49
2022/10/24 08:16:19;;;;;;;17.33;2.50;;;;;;;19.26;79.24;99777.00;8420977;28;20132;-50
2022/10/24 08:20:22;;;;;;;14.73;1.90;;;;;;;19.21;77.25;99779.50;8422496;28;20030;-49
2022/10/24 08:24:23;;;;;;;6.78;1.25;;;;;;;19.11;76.94;99779.09;8420106;28;20035;-49
2022/10/24 08:28:24;;;;;;;8.02;1.20;;;;;;;19.02;77.16;99780.38;8419244;28;20532;-51
2022/10/24 08:32:25;;;;;;;8.30;1.45;;;;;;;19.02;77.93;99787.75;8407636;28;20032;-49
2022/10/24 08:36:28;;;;;;;6.75;1.10;;;;;;;19.10;75.77;99799.34;8420574;28;20601;-48
2022/10/24 08:40:29;;;;;;;8.07;1.10;;;;;;;19.14;75.15;99806.06;8408231;28;20536;-48
2022/10/24 08:44:35;;;;;;;5.85;1.00;;;;;;;19.18;74.92;99796.38;8387513;28;20641;-49
2022/10/24 08:48:47;;;;;;;7.30;1.23;;;;;;;19.63;72.44;99791.84;8403049;28;20063;-50
2022/10/24 08:53:11;;;;;;;9.13;1.20;;;;;;;20.66;70.04;99795.13;8387809;28;20163;-48
2022/10/24 08:57:22;;;;;;;10.07;1.02;;;;;;;21.60;65.76;99790.22;8408550;28;20062;-49
2022/10/24 09:01:37;;;;;;;6.80;1.13;;;;;;;22.92;62.33;99802.78;8400499;28;20409;-49
2022/10/24 09:05:45;;;;;;;6.05;1.23;;;;;;;24.03;59.27;99805.41;8404038;28;20040;-49
2022/10/24 09:09:50;;;;;;;4.78;0.85;;;;;;;24.22;58.80;99812.44;8409778;28;20032;-49
2022/10/24 09:13:51;;;;;;;3.95;1.02;;;;;;;23.51;60.70;99809.19;8442505;27;20113;-49
2022/10/24 09:17:52;;;;;;;5.78;0.95;;;;;;;22.19;62.58;99801.34;8420053;28;20044;-49
2022/10/24 09:21:54;;;;;;;3.47;0.85;;;;;;;21.53;64.32;99805.13;8420023;28;20082;-49
2022/10/24 09:25:57;;;;;;;6.50;1.05;;;;;;;20.99;67.03;99808.63;8418866;28;20543;-49
2022/10/24 09:29:58;;;;;;;5.13;0.88;;;;;;;21.70;64.42;99806.16;8416605;28;20046;-51
2022/10/24 09:34:00;;;;;;;5.03;0.82;;;;;;;21.14;66.24;99800.88;8420733;28;20031;-51
2022/10/24 09:42:36;;;;;;;6.72;1.25;;;;;;;20.67;67.78;99816.03;8403958;27;20909;-48
2022/10/24 09:46:44;;;;;;;8.57;1.08;;;;;;;20.33;68.29;99823.84;8399350;27;20109;-48
2022/10/24 09:51:34;;;;;;;2.42;0.85;;;;;;;20.22;69.91;99832.78;8397689;27;20077;-48
2022/10/24 09:55:43;;;;;;;4.05;0.95;;;;;;;21.13;68.12;99832.16;8398557;27;20048;-48
2022/10/24 09:59:46;;;;;;;9.32;1.08;;;;;;;21.24;65.97;99839.69;8403757;27;20032;-50
2022/10/24 10:04:04;;;;;;;6.43;1.00;;;;;;;20.67;67.43;99837.16;8374574;28;20052;-51
2022/10/24 10:08:10;;;;;;;10.18;1.10;;;;;;;21.05;67.65;99838.78;8397939;27;20055;-50
2022/10/24 10:12:39;;;;;;;4.30;0.90;;;;;;;22.04;64.37;99846.88;8396880;27;20040;-49
2022/10/24 10:16:41;;;;;;;12.15;0.93;;;;;;;21.35;65.29;99847.19;8400706;27;20101;-53
2022/10/24 10:20:41;;;;;;;8.50;1.25;;;;;;;20.85;65.97;99853.72;8397836;27;20032;-49
2022/10/24 10:24:44;;;;;;;8.75;0.88;;;;;;;20.54;67.78;99854.56;8401513;27;20052;-49
2022/10/24 10:28:52;;;;;;;7.38;1.05;;;;;;;20.44;67.73;99864.34;8377904;27;20521;-49
2022/10/24 10:33:19;;;;;;;7.57;1.00;;;;;;;20.32;68.29;99872.44;8442160;27;20040;-51
2022/10/24 10:37:29;;;;;;;6.10;0.85;;;;;;;20.20;69.75;99873.34;8448266;27;20047;-50
2022/10/24 10:41:56;;;;;;;11.07;1.10;;;;;;;19.99;71.71;99881.84;8448503;27;20525;-50
2022/10/24 10:46:31;;;;;;;8.25;1.38;;;;;;;19.91;71.03;99884.84;8426182;27;20407;-48
2022/10/24 10:50:45;;;;;;;5.75;0.98;;;;;;;19.94;71.07;99890.72;8403191;27;20383;-50
2022/10/24 11:03:44;;;;;;;6.95;1.02;;;;;;;20.27;70.08;99904.34;8412458;27;20398;-50
2022/10/24 11:08:13;;;;;;;6.78;0.98;;;;;;;20.05;70.49;99902.91;8382464;28;20037;-48
2022/10/24 11:12:21;;;;;;;11.45;1.00;;;;;;;20.06;71.24;99915.59;8396950;28;20070;-50
2022/10/24 11:16:26;;;;;;;10.77;1.38;;;;;;;20.07;70.28;99917.28;8398694;27;20189;-48
2022/10/24 11:20:32;;;;;;;12.43;1.10;;;;;;;20.15;70.17;99914.31;8392676;27;20406;-48
2022/10/24 11:24:44;;;;;;;8.07;1.02;;;;;;;20.15;70.41;99917.06;8371135;27;20100;-50
2022/10/24 11:33:03;;;;;;;12.35;1.48;;;;;;;19.86;71.65;99925.78;8387014;27;20467;-49
2022/10/24 11:37:11;;;;;;;4.97;0.80;;;;;;;19.77;71.98;99919.69;8381584;28;20147;-52
2022/10/24 11:41:25;;;;;;;4.80;0.95;;;;;;;19.81;71.76;99928.31;8381808;28;20033;-52
2022/10/24 11:45:34;;;;;;;6.43;0.50;;;;;;;19.83;71.42;99920.72;8382130;28;20077;-48
2022/10/24 11:49:40;;;;;;;7.75;1.25;;;;;;;19.96;72.04;99923.44;8382240;28;20071;-48
2022/10/24 11:58:04;;;;;;;8.55;0.77;;;;;;;19.99;71.54;99926.59;8412275;27;20476;-48
2022/10/24 12:02:19;;;;;;;6.50;0.95;;;;;;;20.29;70.41;99927.78;8390502;28;20029;-48
2022/10/24 12:06:45;;;;;;;4.53;1.02;;;;;;;20.46;70.68;99928.16;8399112;28;20047;-51
2022/10/24 12:15:32;;;;;;;7.03;0.73;;;;;;;20.22;71.52;99931.63;8348743;27;20442;-49
2022/10/24 12:19:35;;;;;;;4.10;0.75;;;;;;;20.11;70.68;99922.13;8365404;28;20048;-48
2022/10/24 12:23:37;;;;;;;6.35;0.90;;;;;;;19.99;71.25;99932.06;8346125;28;20049;-48
2022/10/24 12:27:40;;;;;;;3.22;0.60;;;;;;;20.02;70.76;99936.28;8350646;28;20094;-50
2022/10/24 12:31:41;;;;;;;4.90;0.90;;;;;;;19.87;71.96;99930.19;8316365;28;20042;-49
2022/10/24 12:35:46;;;;;;;5.32;0.95;;;;;;;19.76;72.66;99941.84;8323008;28;20048;-48
2022/10/24 12:39:49;;;;;;;6.03;0.73;;;;;;;19.71;73.42;99938.88;8314698;28;20446;-50
2022/10/24 12:43:49;;;;;;;6.95;0.80;;;;;;;19.62;75.19;99940.16;8315087;28;20065;-51
2022/10/24 12:52:34;;;;;;;6.68;0.70;;;;;;;19.87;72.22;99938.44;8338642;27;20397;-50
2022/10/24 12:56:34;;;;;;;4.43;0.63;;;;;;;19.91;71.85;99934.22;8331037;28;20062;-49
2022/10/24 13:00:38;;;;;;;4.13;0.73;;;;;;;19.90;71.99;99938.84;8326191;28;20488;-48
2022/10/24 13:05:18;;;;;;;4.47;1.20;;;;;;;20.01;71.58;99929.13;8331449;28;20042;-48
2022/10/24 13:09:48;;;;;;;5.22;1.33;;;;;;;20.06;71.61;99921.09;8309750;28;20118;-48
2022/10/24 13:18:40;;;;;;;4.72;1.02;;;;;;;20.14;71.17;99907.16;8345216;27;20404;-48
2022/10/24 13:22:41;;;;;;;5.43;1.00;;;;;;;20.24;71.47;99896.53;8350033;28;20370;-48
2022/10/24 13:26:46;;;;;;;7.05;0.90;;;;;;;20.34;71.55;99897.75;8335039;28;20041;-50
2022/10/24 13:30:48;;;;;;;;;;;;;;;20.43;70.75;99901.13;8305334;28;20038;-49
2022/10/24 13:34:53;;;;;;;6.18;1.27;;;;;;;20.53;69.55;99901.47;8296128;28;19925;-49
2022/10/24 13:39:00;;;;;;;5.35;0.73;;;;;;;20.83;69.86;99884.16;8295630;28;20100;-48
2022/10/24 13:43:05;;;;;;;5.75;0.80;;;;;;;21.10;68.19;99893.94;8308294;28;20064;-50
2022/10/24 13:47:17;;;;;;;9.15;0.90;;;;;;;20.90;67.55;99886.88;8329694;28;20160;-50
2022/10/24 13:51:24;;;;;;;3.17;0.63;;;;;;;20.84;69.16;99898.75;8302758;28;20152;-48
2022/10/24 13:55:37;;;;;;;6.63;0.88;;;;;;;20.73;69.18;99896.69;8290781;28;20037;-48
2022/10/24 13:59:38;;;;;;;6.67;0.90;;;;;;;20.53;69.19;99902.34;8312382;28;20044;-48
2022/10/24 14:03:42;;;;;;;7.45;1.02;;;;;;;20.46;69.71;99889.69;8306624;28;20265;-47
2022/10/24 14:07:43;;;;;;;8.65;0.88;;;;;;;20.40;69.92;99907.06;8321633;28;20037;-48
2022/10/24 14:11:47;;;;;;;8.00;0.73;;;;;;;20.41;70.02;99914.22;8311303;28;20044;-49
2022/10/24 14:15:50;;;;;;;5.68;0.70;;;;;;;20.51;69.50;99920.06;8345601;28;20092;-48
2022/10/24 14:19:55;;;;;;;9.85;1.00;;;;;;;20.71;68.37;99916.16;8295901;28;20408;-48
2022/10/24 14:24:00;;;;;;;3.60;0.80;;;;;;;20.59;68.66;99926.16;8315943;28;20742;-48
2022/10/24 14:28:15;;;;;;;5.95;1.02;;;;;;;20.34;68.48;99929.88;8303320;28;20045;-48
2022/10/24 14:32:16;;;;;;;9.13;0.88;;;;;;;20.21;68.61;99918.94;8293682;28;20038;-48
2022/10/24 14:36:20;;;;;;;5.63;0.90;;;;;;;20.23;70.02;99927.81;8294154;28;20042;-48
2022/10/24 14:40:20;;;;;;;6.43;0.55;;;;;;;20.09;70.15;99934.34;8288059;28;20042;-48
2022/10/24 14:44:21;;;;;;;4.55;0.70;;;;;;;20.06;70.98;99940.31;8281454;28;20219;-51
2022/10/24 14:48:23;;;;;;;7.28;1.17;;;;;;;20.00;71.71;99943.91;8290150;28;20037;-49
2022/10/24 14:52:35;;;;;;;6.68;0.85;;;;;;;20.03;70.95;99944.31;8289902;28;20437;-48
2022/10/24 14:56:36;;;;;;;8.10;1.60;;;;;;;20.04;71.52;99945.16;8292698;28;20069;-51
2022/10/24 15:00:39;;;;;;;4.35;0.70;;;;;;;20.01;72.07;99945.59;8291777;28;20054;-50
2022/10/24 15:04:44;;;;;;;8.20;1.10;;;;;;;20.16;70.93;99948.97;8292502;28;20499;-48
2022/10/24 15:08:49;;;;;;;6.18;1.00;;;;;;;20.11;70.44;99941.34;8285510;28;20038;-49
2022/10/24 15:12:59;;;;;;;3.00;0.70;;;;;;;19.99;71.37;99948.53;8284891;28;20096;-51
2022/10/24 15:17:04;;;;;;;9.48;1.02;;;;;;;19.89;72.17;99942.66;8297483;28;20038;-50
2022/10/24 15:21:12;;;;;;;7.78;1.08;;;;;;;19.93;71.91;99937.56;8291424;28;20137;-50
2022/10/24 15:25:34;;;;;;;7.20;1.10;;;;;;;19.81;71.83;99944.78;8291194;28;20042;-52
2022/10/24 15:29:34;;;;;;;4.95;1.00;;;;;;;19.69;72.41;99941.84;8290108;28;20073;-48
2022/10/24 15:33:35;;;;;;;5.47;0.95;;;;;;;19.65;73.49;99946.09;8261471;28;20046;-49
2022/10/24 15:37:36;;;;;;;4.63;0.77;;;;;;;19.68;72.95;99953.03;8272059;28;20046;-49
2022/10/24 15:41:38;;;;;;;12.88;2.30;;;;;;;19.66;74.17;99957.88;8267824;28;20042;-50
2022/10/24 15:45:39;;;;;;;10.35;1.40;;;;;;;19.61;74.00;99965.91;8271047;28;20070;-51
2022/10/24 15:49:39;;;;;;;10.00;0.90;;;;;;;19.52;74.82;99969.91;8285578;28;20422;-49
2022/10/24 15:53:40;;;;;;;6.60;1.02;;;;;;;19.48;74.69;99972.22;8308501;28;20040;-48
2022/10/24 15:57:41;;;;;;;4.90;0.88;;;;;;;19.37;76.58;99981.94;8312858;28;20030;-48
2022/10/24 16:01:47;;;;;;;6.28;0.80;;;;;;;19.20;78.40;99975.16;8300738;28;20053;-49
2022/10/24 16:05:51;;;;;;;8.40;1.42;;;;;;;19.00;80.19;99973.44;8304344;28;20038;-51
2022/10/24 16:09:53;;;;;;;22.58;4.22;;;;;;;18.82;81.13;99967.72;8286977;28;20033;-48
2022/10/24 16:13:54;;;;;;;18.88;5.20;;;;;;;18.66;81.50;99971.66;8287257;28;20045;-48
2022/10/24 16:17:55;;;;;;;11.90;2.50;;;;;;;18.54;82.34;99981.50;8273557;28;20069;-50
2022/10/24 16:21:57;;;;;;;7.38;1.20;;;;;;;18.41;82.90;99989.66;8262452;28;20039;-49
2022/10/24 16:25:58;;;;;;;12.88;1.45;;;;;;;18.32;84.15;100000.94;8256627;28;20049;-50
2022/10/24 16:29:58;;;;;;;9.77;1.85;;;;;;;18.31;83.80;99999.25;8262375;28;20046;-48
2022/10/24 16:33:59;;;;;;;8.35;1.33;;;;;;;18.24;84.40;99999.22;8269109;28;20511;-48
2022/10/24 16:38:01;;;;;;;11.13;1.40;;;;;;;18.26;83.79;100002.59;8262654;28;20439;-48
2022/10/24 16:42:04;;;;;;;15.60;1.77;;;;;;;18.29;83.65;100007.69;8288091;28;20042;-48
2022/10/24 16:46:05;;;;;;;9.45;1.95;;;;;;;18.29;83.29;100007.69;8269376;28;20088;-49
2022/10/24 16:50:06;;;;;;;9.48;1.65;;;;;;;18.30;82.76;100008.53;8256066;28;20037;-48
2022/10/24 16:54:07;;;;;;;8.25;1.00;;;;;;;18.27;82.58;100003.47;8253522;28;20121;-48
2022/10/24 16:58:07;;;;;;;6.97;1.80;;;;;;;18.08;83.31;100007.75;8262729;28;20053;-48
2022/10/24 17:02:10;;;;;;;10.05;1.63;;;;;;;17.86;85.28;100017.09;8276973;28;20045;-48
2022/10/24 17:06:12;;;;;;;13.25;2.17;;;;;;;17.60;87.29;100019.63;8268156;28;20042;-48
2022/10/24 17:10:14;;;;;;;7.35;1.10;;;;;;;17.55;87.95;100019.38;8285635;28;20539;-50
2022/10/24 17:14:15;;;;;;;9.20;1.40;;;;;;;17.46;88.51;100015.06;8299939;28;20375;-49
2022/10/24 17:18:18;;;;;;;8.40;1.42;;;;;;;17.44;88.65;100018.00;8274896;28;20048;-48
2022/10/24 17:22:19;;;;;;;10.33;1.70;;;;;;;17.47;88.52;100022.22;8273067;28;20068;-48
2022/10/24 17:26:20;;;;;;;5.60;1.13;;;;;;;17.48;88.49;100019.28;8278079;28;20076;-51
2022/10/24 17:30:24;;;;;;;6.47;1.45;;;;;;;17.42;89.54;100021.97;8269514;28;20053;-50
2022/10/24 17:34:26;;;;;;;9.65;1.58;;;;;;;17.31;90.38;100028.78;8280695;28;20116;-49
2022/10/24 17:38:35;;;;;;;10.15;1.85;;;;;;;17.21;91.07;100020.09;8281927;28;20115;-50
2022/10/24 17:42:36;;;;;;;11.25;1.45;;;;;;;17.14;91.45;100019.16;8283088;28;20034;-50
2022/10/24 17:46:37;;;;;;;12.48;1.85;;;;;;;17.13;91.48;100024.81;8294816;28;20043;-50
2022/10/24 17:50:37;;;;;;;7.95;1.23;;;;;;;17.17;91.31;100035.16;8319251;28;20057;-48
2022/10/24 17:54:38;;;;;;;13.75;1.83;;;;;;;17.27;90.74;100034.84;8318924;28;20285;-50
2022/10/24 17:58:39;;;;;;;12.52;1.65;;;;;;;17.35;90.14;100040.16;8305579;28;20045;-49
2022/10/24 18:02:49;;;;;;;10.93;2.03;;;;;;;17.43;89.87;100042.81;8263522;28;20038;-48
2022/10/24 18:06:49;;;;;;;14.65;1.88;;;;;;;17.50;89.21;100041.81;8281716;28;20033;-48
2022/10/24 18:10:50;;;;;;;9.43;2.28;;;;;;;17.48;89.61;100059.47;8285090;28;20125;-48
2022/10/24 18:14:51;;;;;;;8.95;1.58;;;;;;;17.44;89.85;100060.88;8287566;28;20065;-48
2022/10/24 18:18:51;;;;;;;7.10;1.52;;;;;;;17.29;91.42;100079.19;8322030;28;20088;-48
2022/10/24 18:22:52;;;;;;;11.32;1.40;;;;;;;17.23;92.24;100075.34;8297799;28;20037;-48
2022/10/24 18:26:52;;;;;;;8.55;1.35;;;;;;;17.17;93.00;100080.78;8289936;28;20455;-48
2022/10/24 18:30:53;;;;;;;11.52;1.92;;;;;;;17.14;92.81;100067.50;8259058;28;20117;-51
2022/10/24 18:34:53;;;;;;;9.43;1.90;;;;;;;17.05;93.56;100076.84;8254299;28;20045;-49
2022/10/24 18:38:56;;;;;;;8.95;1.27;;;;;;;17.04;93.58;100083.31;8267954;28;20567;-48
2022/10/24 18:43:03;;;;;;;5.60;1.15;;;;;;;17.01;93.72;100075.53;8287723;28;20048;-48
2022/10/24 18:47:06;;;;;;;7.07;1.88;;;;;;;16.94;94.31;100080.06;8303527;28;20046;-48
2022/10/24 18:51:21;;;;;;;8.23;1.50;;;;;;;16.92;94.27;100076.66;8320163;28;20041;-50
2022/10/24 18:55:24;;;;;;;10.65;1.48;;;;;;;16.79;95.39;100074.66;8324226;28;20041;-48
2022/10/24 18:59:25;;;;;;;12.10;1.48;;;;;;;16.77;95.18;100084.06;8300665;28;20038;-48
2022/10/24 19:03:34;;;;;;;6.45;1.33;;;;;;;16.67;96.07;100083.50;8281867;28;20552;-48
2022/10/24 19:07:35;;;;;;;8.20;1.60;;;;;;;16.61;96.10;100078.78;8274100;28;20072;-48
2022/10/24 19:11:36;;;;;;;13.05;1.60;;;;;;;16.64;95.27;100083.88;8271927;28;20050;-50
2022/10/24 19:15:41;;;;;;;7.18;1.20;;;;;;;16.58;95.31;100090.09;8259700;28;20155;-48
2022/10/24 19:19:42;;;;;;;5.70;1.50;;;;;;;16.55;95.66;100087.75;8280808;28;20046;-48
2022/10/24 19:23:42;;;;;;;8.55;1.42;;;;;;;16.51;95.82;100091.91;8254539;28;20910;-48
2022/10/24 19:27:43;;;;;;;6.25;1.48;;;;;;;16.57;95.70;100092.00;8259284;28;20058;-51
2022/10/24 19:31:44;;;;;;;7.03;1.10;;;;;;;16.57;95.04;100080.22;8276020;28;20045;-49
2022/10/24 19:35:46;;;;;;;8.20;1.30;;;;;;;16.54;96.23;100088.78;8264717;28;20049;-48
2022/10/24 19:39:47;;;;;;;8.30;1.70;;;;;;;16.47;95.94;100087.84;8266122;28;20045;-51
2022/10/24 19:43:49;;;;;;;7.68;1.55;;;;;;;16.43;96.04;100094.66;8291494;28;20351;-49
2022/10/24 19:47:53;;;;;;;7.00;1.33;;;;;;;16.40;96.46;100103.22;8293383;28;20045;-48